• Join FlightAware (Why Join?)
  • Login
  • US Flag 
02:19AM EDT


 

Airport Tracker/Info


-or-


 

Live Flight TrackerFlight Track Log ✈ N24SA ✈ 27-Feb-2014 ✈ KPYM - KLCI

Flight Track Log - Related Links

Times and Time Zones

All times are in EST time to prevent confusion due to time zone crossing. See the N24SA flight status page for this flight to view local times or setup timezone preferences in your user account.

Time Position Orientation Groundspeed Altitude Reporting Facility
EST Latitude Longitude Course Direction KTS MPH feet Rate Location/Type
09:08PM 41.9500 -70.9167 343° North 265 305 11,400  Level KA90
09:09PM 42.0333 -70.9500 343° North 292 336 12,100  Climbing KA90
09:10PM 42.1000 -70.9667 349° North 279 321 11,500 -660 Descending KA90
09:11PM 42.1833 -71.0000 343° North 276 318 10,800 -660 Descending KA90
09:12PM 42.2500 -71.0167 350° North 280 322 10,200 -360 Descending KA90
09:13PM 42.3333 -71.0333 352° North 292 336 10,100 -60 Descending KA90
09:14PM 42.4167 -71.0667 344° North 284 327 10,100  Level KA90
09:15PM 42.5000 -71.0833 352° North 295 339 10,100  Level KA90
09:16PM 42.5667 -71.1000 350° North 296 341 10,100  Level KA90
09:17PM 42.6500 -71.1333 344° North 298 343 10,100  Level KA90
09:18PM 42.7333 -71.1500 352° North 299 344 10,100  Level KA90
09:19PM 42.8167 -71.1833 344° North 301 346 10,100 -60 Level KA90
09:20PM 42.9000 -71.2000 352° North 273 314 10,000 -300 Descending KA90
09:21PM 42.9667 -71.2333 340° North 266 306 9,600 -480 Descending KA90
09:22PM 43.0500 -71.2500 352° North 267 307 9,100 -540 Descending KA90
09:23PM 43.1167 -71.2667 350° North 280 322 8,500 -600 Descending KA90
09:24PM 43.2000 -71.3000 344° North 271 312 8,000 -600 Descending KA90
09:25PM 43.2667 -71.3167 350° North 243 280 7,400 -720 Descending KA90
09:26PM 43.3333 -71.3333 350° North 234 269 6,600 -840 Descending KA90
09:28PM 43.4104 -71.3565 344° North  Level FlightAware Approximate
09:35PM 43.5667 -71.4167 344° North  Level FlightAware Approximate